Time;durP1;ratioP1;P1;durP2;ratioP2;P2;SDS_P1;SDS_P2;PMS_P1;PMS_P2;Temp;Humidity;BMP_temperature;BMP_pressure;BME280_temperature;BME280_humidity;BME280_pressure;Samples;Min_cycle;Max_cycle;Signal;HPM_P1;HPM_P2
2022/10/29 00:00:37;;;;;;;8.35;1.88;;;;;;;16.33;100.00;101818.78;6273615;28;20048;-72
2022/10/29 00:03:38;;;;;;;5.75;2.63;;;;;;;16.29;100.00;101825.22;6273763;28;20048;-72
2022/10/29 00:06:40;;;;;;;15.35;2.55;;;;;;;16.20;100.00;101825.75;6273505;28;20053;-72
2022/10/29 00:09:41;;;;;;;4.63;2.28;;;;;;;16.17;100.00;101831.28;6273393;28;20397;-72
2022/10/29 00:12:42;;;;;;;8.00;2.58;;;;;;;16.15;100.00;101831.34;6273591;28;20049;-72
2022/10/29 00:15:45;;;;;;;8.02;2.03;;;;;;;16.13;100.00;101841.19;6273045;28;20045;-72
2022/10/29 00:18:47;;;;;;;3.53;1.77;;;;;;;16.09;100.00;101846.78;6273740;28;20052;-72
2022/10/29 00:21:50;;;;;;;14.43;2.67;;;;;;;16.07;100.00;101838.03;6267190;28;20045;-72
2022/10/29 00:24:51;;;;;;;5.80;2.60;;;;;;;16.04;100.00;101825.84;6272761;28;20520;-72
2022/10/29 00:27:52;;;;;;;7.60;2.45;;;;;;;16.03;100.00;101841.81;6272928;28;20048;-72
2022/10/29 00:30:55;;;;;;;10.15;2.65;;;;;;;15.95;100.00;101839.63;6272861;28;20053;-72
2022/10/29 00:33:57;;;;;;;8.13;2.15;;;;;;;15.93;100.00;101837.03;6272642;28;20045;-72
2022/10/29 00:36:58;;;;;;;9.50;2.67;;;;;;;15.86;100.00;101841.03;6273346;28;20049;-72
2022/10/29 00:40:00;;;;;;;4.03;1.98;;;;;;;15.89;100.00;101843.47;6272390;28;20056;-72
2022/10/29 00:43:12;;;;;;;8.43;2.03;;;;;;;15.82;100.00;101843.94;6272334;28;20045;-72
2022/10/29 00:46:18;;;;;;;10.02;1.92;;;;;;;15.81;100.00;101839.59;6272577;28;20049;-72
2022/10/29 00:49:20;;;;;;;7.35;1.70;;;;;;;15.86;100.00;101841.03;6272994;28;20060;-72
2022/10/29 00:52:23;;;;;;;6.90;2.15;;;;;;;15.80;100.00;101837.84;6272328;28;20408;-72
2022/10/29 00:55:24;;;;;;;4.38;1.38;;;;;;;15.81;100.00;101839.59;6272360;28;20044;-72
2022/10/29 00:58:27;;;;;;;8.65;2.10;;;;;;;15.81;100.00;101821.03;6272720;28;20055;-72
2022/10/29 01:01:30;;;;;;;5.60;1.63;;;;;;;15.79;100.00;101836.16;6271844;28;20492;-72
2022/10/29 01:04:31;;;;;;;4.85;2.03;;;;;;;15.72;100.00;101838.31;6271997;28;20048;-72
2022/10/29 01:07:33;;;;;;;3.22;1.45;;;;;;;15.73;100.00;101832.91;6272127;28;20530;-72
2022/10/29 01:10:50;;;;;;;9.52;1.55;;;;;;;15.72;100.00;101833.00;6272058;28;20053;-72
2022/10/29 01:14:02;;;;;;;3.45;1.33;;;;;;;15.66;100.00;101831.53;6271658;28;20045;-72
2022/10/29 01:17:13;;;;;;;8.85;1.58;;;;;;;15.61;100.00;101836.22;6272339;28;20049;-72
2022/10/29 01:20:52;;;;;;;7.30;1.45;;;;;;;15.60;100.00;101842.47;6271586;28;20420;-72
2022/10/29 01:24:24;;;;;;;3.22;2.00;;;;;;;15.55;100.00;101847.19;6246475;28;20042;-72
2022/10/29 01:28:05;;;;;;;2.55;1.60;;;;;;;15.50;100.00;101845.75;6247354;28;20056;-72
2022/10/29 01:31:18;;;;;;;4.60;1.40;;;;;;;15.47;100.00;101839.66;6195015;28;20075;-72
2022/10/29 01:34:24;;;;;;;1.42;1.02;;;;;;;15.53;100.00;101849.03;6195739;28;20054;-72
2022/10/29 01:37:32;;;;;;;5.53;1.55;;;;;;;15.55;100.00;101836.59;6247121;28;20060;-72
2022/10/29 01:40:39;;;;;;;5.25;1.65;;;;;;;15.54;100.00;101841.97;6246267;28;20061;-72
2022/10/29 01:43:47;;;;;;;3.80;1.40;;;;;;;15.48;100.00;101843.16;6246875;28;20045;-72
2022/10/29 01:46:54;;;;;;;4.60;1.33;;;;;;;15.43;100.00;101851.38;6247017;28;20056;-72
2022/10/29 01:50:00;;;;;;;3.53;1.40;;;;;;;15.40;100.00;101848.06;6246625;28;20049;-72
2022/10/29 01:53:04;;;;;;;3.03;1.20;;;;;;;15.30;100.00;101852.97;6246740;28;20075;-72
2022/10/29 01:56:06;;;;;;;4.88;1.65;;;;;;;15.23;100.00;101865.72;6246452;28;20045;-72
2022/10/29 01:59:12;;;;;;;4.80;1.45;;;;;;;15.15;100.00;101867.94;6246560;28;20420;-72
2022/10/29 02:02:24;;;;;;;8.77;1.77;;;;;;;15.15;100.00;101849.41;6259759;28;20041;-72
2022/10/29 02:05:31;;;;;;;4.10;1.58;;;;;;;15.12;100.00;101849.56;6270592;28;20036;-72
2022/10/29 02:08:41;;;;;;;7.93;1.52;;;;;;;15.05;100.00;101855.28;6259362;28;20048;-72
2022/10/29 02:11:51;;;;;;;2.38;1.42;;;;;;;14.98;100.00;101852.09;6262689;28;20057;-72
2022/10/29 02:14:56;;;;;;;4.93;1.48;;;;;;;14.89;100.00;101845.50;6263941;28;20054;-72
2022/10/29 02:18:01;;;;;;;9.20;1.65;;;;;;;14.83;100.00;101834.41;6263007;28;20099;-72
2022/10/29 02:21:03;;;;;;;4.68;1.77;;;;;;;14.78;100.00;101832.00;6257040;28;20128;-72
2022/10/29 02:24:05;;;;;;;5.35;2.30;;;;;;;14.72;100.00;101824.41;6264362;28;20045;-72
2022/10/29 02:27:07;;;;;;;4.97;1.83;;;;;;;14.66;100.00;101822.06;6271136;28;20045;-72
2022/10/29 02:30:09;;;;;;;3.72;1.98;;;;;;;14.56;100.00;101815.56;6270480;28;20106;-72
2022/10/29 02:33:12;;;;;;;5.97;1.90;;;;;;;14.50;100.00;101822.03;6270938;28;20496;-72
2022/10/29 02:36:13;;;;;;;12.05;2.65;;;;;;;14.43;100.00;101826.75;6270497;28;20056;-72
2022/10/29 02:39:14;;;;;;;4.75;2.08;;;;;;;14.36;100.00;101817.44;6270850;28;20473;-72
2022/10/29 02:42:16;;;;;;;4.28;1.65;;;;;;;14.28;100.00;101822.28;6268412;28;20076;-72
2022/10/29 02:45:18;;;;;;;3.15;1.52;;;;;;;14.19;100.00;101820.94;6270559;28;20056;-72
2022/10/29 02:48:21;;;;;;;5.50;2.08;;;;;;;14.16;100.00;101815.81;6269127;28;20515;-72
2022/10/29 02:51:22;;;;;;;7.18;2.58;;;;;;;14.09;100.00;101821.50;6267715;28;20078;-72
2022/10/29 02:54:23;;;;;;;3.50;2.00;;;;;;;14.04;100.00;101812.97;6270846;28;20063;-72
2022/10/29 02:57:25;;;;;;;3.05;1.80;;;;;;;13.99;100.00;101807.91;6268903;28;20041;-72
2022/10/29 03:00:26;;;;;;;8.45;1.70;;;;;;;13.92;100.00;101825.00;6267251;28;20049;-72
2022/10/29 03:03:29;;;;;;;3.75;1.85;;;;;;;13.86;100.00;101815.59;6273833;28;20489;-72
2022/10/29 03:06:31;;;;;;;4.10;1.95;;;;;;;13.82;100.00;101818.47;6274923;28;20075;-72
2022/10/29 03:09:32;;;;;;;8.25;1.90;;;;;;;13.80;100.00;101821.16;6274958;28;20481;-72
2022/10/29 03:12:34;;;;;;;4.55;2.05;;;;;;;13.79;100.00;101819.47;6268847;28;20053;-72
2022/10/29 03:15:35;;;;;;;6.03;2.35;;;;;;;13.79;100.00;101813.31;6274360;28;20049;-72
2022/10/29 03:18:38;;;;;;;6.57;2.70;;;;;;;13.73;100.00;101814.50;6272093;28;20500;-72
2022/10/29 03:21:40;;;;;;;7.25;2.13;;;;;;;13.66;100.00;101808.63;6271761;28;20444;-72
2022/10/29 03:24:41;;;;;;;10.18;2.42;;;;;;;13.60;100.00;101808.09;6274299;28;20049;-72
2022/10/29 03:27:43;;;;;;;5.47;2.25;;;;;;;13.54;100.00;101800.47;6273138;28;20523;-72
2022/10/29 03:30:45;;;;;;;5.75;2.90;;;;;;;13.52;100.00;101799.69;6274456;28;20049;-72
2022/10/29 03:33:47;;;;;;;4.47;2.33;;;;;;;13.47;100.00;101794.63;6274184;28;20428;-72
2022/10/29 03:36:49;;;;;;;4.25;2.10;;;;;;;13.45;100.00;101793.88;6274732;28;20056;-72
2022/10/29 03:39:50;;;;;;;5.60;2.13;;;;;;;13.38;100.00;101790.66;6274252;28;20049;-72
2022/10/29 03:42:52;;;;;;;5.60;2.38;;;;;;;13.34;100.00;101799.63;6274105;28;20056;-72
2022/10/29 03:45:55;;;;;;;6.38;2.67;;;;;;;13.32;100.00;101805.94;6273988;28;20049;-72
2022/10/29 03:48:58;;;;;;;4.22;2.17;;;;;;;13.28;100.00;101802.59;6274093;28;20060;-72
2022/10/29 03:51:59;;;;;;;6.50;2.03;;;;;;;13.24;100.00;101816.00;6273962;28;20049;-72
2022/10/29 03:55:01;;;;;;;5.97;2.00;;;;;;;13.19;100.00;101809.13;6273720;28;20056;-72
2022/10/29 03:58:02;;;;;;;5.47;2.03;;;;;;;13.17;100.00;101811.00;6274205;28;20044;-72
2022/10/29 04:01:06;;;;;;;5.38;2.33;;;;;;;13.11;100.00;101813.91;6273716;28;20060;-72
2022/10/29 04:04:09;;;;;;;9.70;2.65;;;;;;;13.09;100.00;101805.22;6273126;28;20048;-72
2022/10/29 04:07:11;;;;;;;7.28;1.90;;;;;;;13.06;100.00;101807.97;6273892;28;20041;-72
2022/10/29 04:10:13;;;;;;;10.32;2.97;;;;;;;13.06;100.00;101807.13;6273545;28;20511;-72
2022/10/29 04:13:15;;;;;;;11.38;2.58;;;;;;;13.05;100.00;101815.97;6273773;28;20053;-72
2022/10/29 04:16:16;;;;;;;3.05;1.58;;;;;;;13.00;100.00;101810.06;6273747;28;20045;-72
2022/10/29 04:19:19;;;;;;;6.15;2.13;;;;;;;12.93;100.00;101807.69;6269025;28;20056;-72
2022/10/29 04:22:20;;;;;;;9.98;2.65;;;;;;;12.91;100.00;101817.47;6270186;28;20045;-72
2022/10/29 04:25:22;;;;;;;4.75;2.42;;;;;;;12.91;100.00;101811.34;6273149;28;20056;-72
2022/10/29 04:28:24;;;;;;;5.60;2.60;;;;;;;12.87;100.00;101815.03;6265474;28;20049;-72
2022/10/29 04:31:26;;;;;;;4.60;2.17;;;;;;;12.85;100.00;101816.88;6271884;28;20059;-72
2022/10/29 04:34:29;;;;;;;7.85;2.55;;;;;;;12.79;100.00;101811.91;6256760;28;20059;-72
2022/10/29 04:37:30;;;;;;;6.10;2.60;;;;;;;12.77;100.00;101811.13;6255047;28;20520;-72
2022/10/29 04:40:31;;;;;;;9.43;2.60;;;;;;;12.75;100.00;101818.22;6264170;28;20045;-72
2022/10/29 04:43:33;;;;;;;4.72;2.03;;;;;;;12.72;100.00;101819.25;6271014;28;20400;-72
2022/10/29 04:46:34;;;;;;;6.00;2.78;;;;;;;12.62;100.00;101818.78;6266002;28;20059;-72
2022/10/29 04:49:37;;;;;;;7.55;2.47;;;;;;;12.64;100.00;101810.81;6269721;28;20049;-72
2022/10/29 04:52:38;;;;;;;3.80;2.20;;;;;;;12.64;100.00;101809.03;6269364;28;20096;-72
2022/10/29 04:55:40;;;;;;;8.40;2.70;;;;;;;12.60;100.00;101804.81;6270336;28;20052;-73
2022/10/29 04:58:41;;;;;;;3.60;2.65;;;;;;;12.57;100.00;101806.72;6268469;28;20052;-72
2022/10/29 05:01:43;;;;;;;14.85;2.95;;;;;;;12.54;100.00;101806.88;6270143;28;20044;-72
2022/10/29 05:04:46;;;;;;;8.85;2.60;;;;;;;12.50;100.00;101811.44;6270167;28;20040;-72
2022/10/29 05:07:47;;;;;;;4.47;2.45;;;;;;;12.44;100.00;101803.78;6266627;28;20048;-72
2022/10/29 05:10:49;;;;;;;4.38;2.33;;;;;;;12.44;100.00;101809.94;6270559;28;20045;-72
2022/10/29 05:13:50;;;;;;;6.00;2.75;;;;;;;12.44;100.00;101809.94;6270238;28;20060;-72
2022/10/29 05:16:52;;;;;;;7.32;2.72;;;;;;;12.42;100.00;101803.00;6269881;28;20055;-72
2022/10/29 05:19:54;;;;;;;5.45;2.47;;;;;;;12.41;100.00;101804.78;6270570;28;20044;-72
2022/10/29 05:22:59;;;;;;;6.00;2.80;;;;;;;12.39;100.00;101809.25;6269767;28;20049;-72
2022/10/29 05:26:01;;;;;;;7.25;2.97;;;;;;;12.37;100.00;101807.63;6269945;28;20146;-72
2022/10/29 05:29:02;;;;;;;9.25;2.60;;;;;;;12.36;100.00;101809.41;6270582;28;20408;-72
2022/10/29 05:32:04;;;;;;;5.13;2.45;;;;;;;12.33;100.00;101813.94;6270292;28;20068;-72
2022/10/29 05:35:07;;;;;;;5.28;2.65;;;;;;;12.34;100.00;101818.28;6270757;28;20052;-72
2022/10/29 05:38:10;;;;;;;11.60;3.25;;;;;;;12.32;100.00;101821.00;6271871;28;20056;-72
2022/10/29 05:41:11;;;;;;;5.43;2.78;;;;;;;12.32;100.00;101820.16;6271398;28;20057;-72
2022/10/29 05:44:13;;;;;;;9.88;2.60;;;;;;;12.30;100.00;101822.81;6259798;28;20511;-72
2022/10/29 05:47:14;;;;;;;7.93;2.50;;;;;;;12.32;100.00;101821.00;6271472;28;20052;-72
2022/10/29 05:50:17;;;;;;;7.25;3.63;;;;;;;12.33;100.00;101829.75;6262262;28;20515;-72
2022/10/29 05:53:18;;;;;;;7.72;2.80;;;;;;;12.33;100.00;101825.34;6262155;28;20045;-72
2022/10/29 05:56:20;;;;;;;6.15;3.00;;;;;;;12.36;100.00;101829.63;6257639;28;20408;-72
2022/10/29 05:59:21;;;;;;;5.22;2.80;;;;;;;12.35;100.00;101831.41;6271376;28;20127;-72
2022/10/29 06:02:22;;;;;;;8.65;2.78;;;;;;;12.30;100.00;101832.50;6270652;28;20515;-72
2022/10/29 06:05:26;;;;;;;5.57;2.80;;;;;;;12.29;100.00;101836.94;6270748;28;20037;-72
2022/10/29 06:08:27;;;;;;;4.18;2.58;;;;;;;12.27;100.00;101838.78;6271051;28;20045;-72
2022/10/29 06:11:29;;;;;;;7.10;2.60;;;;;;;12.26;100.00;101839.69;6271042;28;20053;-72
2022/10/29 06:14:31;;;;;;;7.55;2.97;;;;;;;12.24;100.00;101835.44;6270831;28;20052;-72
2022/10/29 06:17:33;;;;;;;5.18;2.63;;;;;;;12.25;100.00;101840.63;6267051;28;20045;-72
2022/10/29 06:20:36;;;;;;;7.18;2.63;;;;;;;12.22;100.00;101824.06;6270640;28;20045;-72
2022/10/29 06:23:37;;;;;;;4.60;2.42;;;;;;;12.21;100.00;101831.13;6270644;28;20053;-72
2022/10/29 06:26:39;;;;;;;7.40;2.60;;;;;;;12.23;100.00;101846.91;6271207;28;20389;-72
2022/10/29 06:29:40;;;;;;;8.27;3.08;;;;;;;12.22;100.00;101848.69;6270477;28;20519;-72
2022/10/29 06:32:46;;;;;;;4.80;2.72;;;;;;;12.23;100.00;101844.25;6275759;28;20053;-72
2022/10/29 06:35:49;;;;;;;7.15;3.03;;;;;;;12.24;100.00;101844.19;6275272;28;20048;-72
2022/10/29 06:38:51;;;;;;;6.38;2.85;;;;;;;12.27;100.00;101840.56;6276067;28;20059;-72
2022/10/29 06:41:52;;;;;;;7.15;3.42;;;;;;;12.29;100.00;101830.81;6273645;28;20455;-72
2022/10/29 06:44:53;;;;;;;12.20;3.97;;;;;;;12.22;100.00;101824.06;6273734;28;20045;-73
2022/10/29 06:47:55;;;;;;;6.35;3.28;;;;;;;12.23;100.00;101817.91;6275497;28;20056;-72
2022/10/29 06:51:00;;;;;;;7.45;2.97;;;;;;;12.23;100.00;101816.13;6275423;28;20056;-72
2022/10/29 06:54:01;;;;;;;5.75;2.80;;;;;;;12.25;100.00;101809.00;6274999;28;20158;-72
2022/10/29 06:57:02;;;;;;;4.63;2.72;;;;;;;12.26;100.00;101815.13;6275773;28;20053;-72
2022/10/29 07:00:05;;;;;;;10.90;3.22;;;;;;;12.28;100.00;101819.41;6274827;28;20053;-72
2022/10/29 07:03:07;;;;;;;8.18;3.03;;;;;;;12.32;100.00;101820.16;6275525;28;20045;-72
2022/10/29 07:06:09;;;;;;;7.97;2.45;;;;;;;12.34;100.00;101808.59;6274810;28;20068;-72
2022/10/29 07:09:11;;;;;;;6.40;2.88;;;;;;;12.35;100.00;101820.88;6275200;28;20045;-72
2022/10/29 07:12:12;;;;;;;8.45;3.50;;;;;;;12.38;100.00;101817.22;6274782;28;20060;-72
2022/10/29 07:15:14;;;;;;;5.50;2.90;;;;;;;12.40;100.00;101820.69;6274541;28;20045;-72
2022/10/29 07:18:15;;;;;;;6.45;3.28;;;;;;;12.38;100.00;101820.72;6275098;28;20069;-72
2022/10/29 07:21:18;;;;;;;6.30;3.65;;;;;;;12.40;100.00;101820.69;6274243;28;20056;-72
2022/10/29 07:24:19;;;;;;;6.10;3.10;;;;;;;12.42;100.00;101826.72;6274598;28;20049;-72
2022/10/29 07:27:21;;;;;;;10.10;3.67;;;;;;;12.46;100.00;101830.09;6274675;28;20056;-72
2022/10/29 07:30:22;;;;;;;9.60;2.65;;;;;;;12.53;100.00;101828.88;6274611;28;20053;-72
2022/10/29 07:33:24;;;;;;;7.93;3.60;;;;;;;12.57;100.00;101833.09;6274495;28;20075;-72
2022/10/29 07:36:26;;;;;;;6.40;3.00;;;;;;;12.64;100.00;101827.50;6274510;28;20056;-72
2022/10/29 07:39:28;;;;;;;10.48;4.45;;;;;;;12.68;100.00;101834.34;6273746;28;20048;-72
2022/10/29 07:42:29;;;;;;;8.00;3.28;;;;;;;12.74;100.00;101825.28;6263885;28;20401;-72
2022/10/29 07:45:30;;;;;;;9.38;3.22;;;;;;;12.82;100.00;101831.09;6258830;28;20038;-72
2022/10/29 07:48:32;;;;;;;5.32;2.97;;;;;;;12.87;100.00;101829.09;6272637;28;20048;-72
2022/10/29 07:51:35;;;;;;;6.60;3.40;;;;;;;12.96;100.00;101825.19;6273800;28;20048;-72
2022/10/29 07:54:36;;;;;;;7.82;3.33;;;;;;;13.05;100.00;101814.19;6273788;28;20485;-72
2022/10/29 07:57:38;;;;;;;7.40;2.65;;;;;;;13.14;100.00;101828.75;6274218;28;20049;-72
2022/10/29 08:00:40;;;;;;;8.40;2.90;;;;;;;13.24;100.00;101831.84;6273563;28;20049;-72
2022/10/29 08:03:42;;;;;;;4.18;2.90;;;;;;;13.30;100.00;101831.53;6262785;28;20075;-72
2022/10/29 08:06:45;;;;;;;8.75;3.72;;;;;;;13.40;100.00;101833.69;6273556;28;20045;-72
2022/10/29 08:09:46;;;;;;;9.52;3.50;;;;;;;13.47;100.00;101850.09;6273696;28;20048;-72
2022/10/29 08:12:51;;;;;;;10.45;3.60;;;;;;;13.54;100.00;101842.75;6273481;28;20052;-72
2022/10/29 08:15:52;;;;;;;7.53;3.75;;;;;;;13.61;100.00;101831.78;6273264;28;20504;-72
2022/10/29 08:18:53;;;;;;;13.50;4.18;;;;;;;13.68;100.00;101835.00;6265638;28;20053;-72
2022/10/29 08:21:56;;;;;;;7.28;3.50;;;;;;;13.76;100.00;101831.97;6271599;28;20064;-72
2022/10/29 08:24:58;;;;;;;11.95;4.47;;;;;;;13.81;100.00;101822.91;6267050;28;20049;-72
2022/10/29 08:28:00;;;;;;;8.68;3.83;;;;;;;13.89;100.00;101820.69;6254952;28;20045;-72
2022/10/29 08:31:01;;;;;;;11.18;5.25;;;;;;;13.98;100.00;101814.09;6260805;28;20060;-72
2022/10/29 08:34:03;;;;;;;11.98;4.68;;;;;;;14.06;100.00;101825.16;6272528;28;20496;-72
2022/10/29 08:37:06;;;;;;;10.40;4.70;;;;;;;14.12;100.00;101830.13;6273189;28;20045;-72
2022/10/29 08:40:13;;;;;;;14.65;4.97;;;;;;;14.17;100.00;101828.13;6266191;28;20065;-71
2022/10/29 08:43:35;;;;;;;10.70;5.40;;;;;;;14.27;100.00;101825.84;6272831;28;20420;-72
2022/10/29 08:46:43;;;;;;;10.85;5.43;;;;;;;14.37;100.00;101831.53;6263323;28;20052;-72
2022/10/29 08:49:51;;;;;;;12.48;5.40;;;;;;;14.42;100.00;101821.56;6265043;28;20055;-72
2022/10/29 08:52:54;;;;;;;16.15;6.43;;;;;;;14.52;100.00;101833.38;6272737;28;20069;-72
2022/10/29 08:55:56;;;;;;;10.95;5.60;;;;;;;14.62;100.00;101829.31;6272650;28;20041;-72
2022/10/29 08:59:03;;;;;;;11.52;5.68;;;;;;;14.68;100.00;101836.09;6272632;28;20045;-72
2022/10/29 09:02:04;;;;;;;12.32;4.97;;;;;;;14.75;100.00;101832.16;6272408;28;20049;-72
2022/10/29 09:05:06;;;;;;;11.45;4.95;;;;;;;14.82;100.00;101835.34;6259040;28;20485;-72
2022/10/29 09:08:25;;;;;;;11.05;5.30;;;;;;;14.92;100.00;101823.31;6255421;28;20401;-72
2022/10/29 09:11:48;;;;;;;10.13;4.15;;;;;;;15.02;100.00;101828.97;6272032;28;20048;-76
2022/10/29 09:15:09;;;;;;;10.43;4.72;;;;;;;15.09;100.00;101823.28;6257289;28;20056;-74
2022/10/29 09:18:32;;;;;;;9.77;5.03;;;;;;;15.20;100.00;101812.06;6256787;28;20051;-73
2022/10/29 09:21:39;;;;;;;9.05;4.85;;;;;;;15.28;100.00;101820.44;6268698;28;20432;-73
2022/10/29 09:24:49;;;;;;;9.15;4.63;;;;;;;15.37;100.00;101805.84;6270345;28;20052;-73
2022/10/29 09:28:19;;;;;;;14.63;6.00;;;;;;;15.49;100.00;101818.41;6269982;28;20575;-73
2022/10/29 09:31:29;;;;;;;15.60;5.75;;;;;;;15.60;100.00;101820.44;6270295;28;20071;-73
2022/10/29 09:34:36;;;;;;;15.80;5.22;;;;;;;15.70;100.00;101816.31;6270684;28;20049;-72
2022/10/29 09:37:43;;;;;;;13.88;5.10;;;;;;;15.77;100.00;101816.84;6271969;28;20045;-72
2022/10/29 09:40:46;;;;;;;11.10;5.43;;;;;;;15.82;100.00;101810.31;6271426;28;20060;-73
2022/10/29 09:43:54;;;;;;;9.15;4.40;;;;;;;15.89;100.00;101814.31;6271174;28;20048;-72
2022/10/29 09:47:06;;;;;;;8.35;4.05;;;;;;;15.96;100.00;101806.88;6271706;28;20049;-72
2022/10/29 09:50:18;;;;;;;14.52;4.57;;;;;;;16.04;100.00;101794.00;6271418;28;20045;-72
2022/10/29 09:53:19;;;;;;;17.73;4.40;;;;;;;16.11;100.00;101794.50;6271487;28;20045;-73
2022/10/29 09:56:22;;;;;;;8.70;3.97;;;;;;;16.18;100.00;101788.72;6271228;28;20052;-73
2022/10/29 09:59:31;;;;;;;11.73;4.10;;;;;;;16.25;100.00;101783.91;6271387;28;20053;-72
2022/10/29 10:02:36;;;;;;;14.30;4.18;;;;;;;16.32;100.00;101773.78;6270774;28;20056;-72
2022/10/29 10:05:57;;;;;;;14.27;4.00;;;;;;;16.42;100.00;101769.63;6270888;28;20052;-72
2022/10/29 10:09:00;;;;;;;15.00;4.65;;;;;;;16.52;100.00;101772.53;6271482;28;20053;-72
2022/10/29 10:12:07;;;;;;;14.68;4.88;;;;;;;16.60;100.00;101768.47;6270787;28;20716;-73
2022/10/29 10:15:19;;;;;;;12.35;5.07;;;;;;;16.67;100.00;101763.66;6271056;28;20052;-72
2022/10/29 10:18:23;;;;;;;11.02;3.63;;;;;;;16.75;100.00;101766.69;6267741;28;20056;-72
2022/10/29 10:21:26;;;;;;;11.30;4.38;;;;;;;16.79;100.00;101764.69;6269726;28;20049;-73
2022/10/29 10:24:30;;;;;;;11.70;5.22;;;;;;;16.83;100.00;101763.56;6270591;28;20049;-72
2022/10/29 10:27:33;;;;;;;15.77;5.22;;;;;;;16.90;100.00;101757.78;6271242;28;20137;-72
2022/10/29 10:30:35;;;;;;;8.88;3.42;;;;;;;16.92;100.00;101755.00;6270374;28;20060;-72
2022/10/29 10:33:43;;;;;;;14.77;4.97;;;;;;;16.90;100.00;101755.13;6270676;28;20049;-72
2022/10/29 10:36:49;;;;;;;12.13;3.67;;;;;;;16.91;100.00;101767.44;6269946;28;20052;-72
2022/10/29 10:39:56;;;;;;;10.40;4.25;;;;;;;16.96;100.00;101761.81;6269509;28;20508;-72
2022/10/29 10:42:59;;;;;;;13.50;4.07;;;;;;;17.01;100.00;101748.25;6268086;28;20048;-72
2022/10/29 10:46:12;;;;;;;11.48;3.55;;;;;;;17.19;100.00;101752.38;6270565;28;20045;-72
2022/10/29 10:49:17;;;;;;;7.25;3.85;;;;;;;17.28;100.00;101751.78;6270930;28;20500;-72
2022/10/29 10:52:22;;;;;;;16.42;4.55;;;;;;;17.35;100.00;101747.78;6270482;28;20061;-72
2022/10/29 10:55:27;;;;;;;9.35;3.38;;;;;;;17.44;100.00;101748.94;6270363;28;20405;-72
2022/10/29 10:58:36;;;;;;;11.57;3.65;;;;;;;17.56;100.00;101741.97;6270806;28;20071;-72
2022/10/29 11:01:43;;;;;;;8.88;3.40;;;;;;;17.65;100.00;101738.69;6270256;28;20052;-72
2022/10/29 11:04:48;;;;;;;6.15;3.13;;;;;;;17.65;100.00;101734.22;6270511;28;20052;-72
2022/10/29 11:07:58;;;;;;;5.80;3.35;;;;;;;17.61;100.00;101730.06;6270715;28;20049;-72
2022/10/29 11:11:06;;;;;;;11.38;3.35;;;;;;;17.62;100.00;101722.94;6270698;28;20049;-72
2022/10/29 11:14:16;;;;;;;4.20;2.78;;;;;;;17.65;100.00;101714.78;6271536;28;20040;-72
2022/10/29 11:17:26;;;;;;;9.05;3.53;;;;;;;17.67;100.00;101707.56;6275160;28;20044;-72
2022/10/29 11:20:32;;;;;;;9.13;3.15;;;;;;;17.68;100.00;101703.94;6274669;28;20098;-72
2022/10/29 11:23:42;;;;;;;7.80;3.25;;;;;;;17.68;100.00;101702.13;6274786;28;20049;-72
2022/10/29 11:26:48;;;;;;;14.52;3.92;;;;;;;17.72;100.00;101705.44;6274613;28;20049;-72
2022/10/29 11:30:01;;;;;;;12.27;4.50;;;;;;;17.74;100.00;101714.19;6274379;28;20497;-72
2022/10/29 11:33:12;;;;;;;9.43;3.67;;;;;;;17.73;100.00;101712.44;6274248;28;20527;-73
2022/10/29 11:36:19;;;;;;;11.13;3.53;;;;;;;17.74;100.00;101707.06;6274245;28;20048;-72
2022/10/29 11:39:25;;;;;;;10.60;3.65;;;;;;;17.75;100.00;101686.63;6274566;28;20055;-73
2022/10/29 11:42:27;;;;;;;7.55;3.72;;;;;;;17.81;100.00;101688.88;6274133;28;20052;-73
2022/10/29 11:45:42;;;;;;;7.00;3.53;;;;;;;17.86;100.00;101691.22;6273113;28;20045;-73
2022/10/29 11:48:54;;;;;;;11.48;3.28;;;;;;;17.93;100.00;101682.69;6273988;28;20049;-73
2022/10/29 11:52:05;;;;;;;11.68;3.42;;;;;;;18.12;100.00;101676.97;6273795;28;20081;-73
2022/10/29 11:55:19;;;;;;;10.32;3.03;;;;;;;18.37;100.00;101670.75;6274010;28;20053;-73
2022/10/29 11:58:30;;;;;;;11.77;3.97;;;;;;;18.60;100.00;101668.25;6273993;28;20493;-73
2022/10/29 12:01:42;;;;;;;8.13;2.97;;;;;;;18.71;100.00;101655.91;6273782;28;20041;-73
2022/10/29 12:04:48;;;;;;;10.63;2.97;;;;;;;18.81;100.00;101658.72;6273527;28;20048;-73
2022/10/29 12:08:03;;;;;;;8.40;3.58;;;;;;;18.95;100.00;101671.03;6274049;28;20048;-73
2022/10/29 12:11:13;;;;;;;6.78;3.13;;;;;;;19.05;100.00;101661.38;6273349;28;20543;-73
2022/10/29 12:14:26;;;;;;;7.53;3.40;;;;;;;19.06;100.00;101657.75;6273430;28;20261;-73
2022/10/29 12:17:37;;;;;;;7.00;3.38;;;;;;;19.15;100.00;101646.41;6273675;28;20041;-73
2022/10/29 12:20:46;;;;;;;8.85;3.22;;;;;;;19.16;100.00;101645.44;6273358;28;20087;-73
2022/10/29 12:23:59;;;;;;;9.77;4.00;;;;;;;19.14;100.00;101649.19;6272697;28;20056;-73
2022/10/29 12:27:12;;;;;;;5.68;2.40;;;;;;;19.12;100.00;101637.78;6273147;28;20052;-73
2022/10/29 12:30:16;;;;;;;4.75;2.63;;;;;;;19.29;100.00;101628.53;6272931;28;20107;-73
2022/10/29 12:33:24;;;;;;;14.15;2.92;;;;;;;19.38;100.00;101617.16;6273281;28;20075;-73
2022/10/29 12:36:33;;;;;;;8.18;3.50;;;;;;;19.52;100.00;101616.94;6272998;28;20052;-73
2022/10/29 12:39:39;;;;;;;3.75;2.60;;;;;;;19.71;100.00;101611.94;6273303;28;20056;-74
2022/10/29 12:42:41;;;;;;;6.35;3.30;;;;;;;19.91;100.00;101606.84;6273232;28;20049;-74
2022/10/29 12:45:51;;;;;;;6.43;3.13;;;;;;;19.97;100.00;101603.69;6272691;28;20041;-74
2022/10/29 12:49:01;;;;;;;6.70;2.50;;;;;;;19.98;100.00;101605.38;6273418;28;20049;-74
2022/10/29 12:52:11;;;;;;;6.70;2.88;;;;;;;20.07;100.00;101609.97;6275631;28;20041;-73
2022/10/29 12:55:15;;;;;;;6.63;2.50;;;;;;;20.20;100.00;101604.50;6273629;28;20049;-73
2022/10/29 12:58:48;;;;;;;3.67;2.28;;;;;;;20.32;100.00;101605.38;6271940;28;20056;-72
2022/10/29 13:01:50;;;;;;;7.78;2.85;;;;;;;20.38;100.00;101611.03;6259965;28;20075;-73
2022/10/29 13:05:39;;;;;;;9.63;2.40;;;;;;;20.48;100.00;101597.81;6271976;28;20508;-73
2022/10/29 13:08:41;;;;;;;4.25;2.28;;;;;;;20.56;100.00;101587.34;6182879;28;20185;-73
2022/10/29 13:11:46;;;;;;;7.75;2.92;;;;;;;20.54;100.00;101580.47;6271957;28;20405;-73
2022/10/29 13:14:52;;;;;;;6.88;2.67;;;;;;;20.38;100.00;101575.47;6271946;28;20049;-73
2022/10/29 13:17:56;;;;;;;6.00;2.97;;;;;;;20.17;100.00;101584.28;6272168;28;20045;-73
2022/10/29 13:20:59;;;;;;;8.75;2.88;;;;;;;20.06;100.00;101584.28;6271855;28;20056;-73
2022/10/29 13:24:05;;;;;;;8.73;2.42;;;;;;;19.96;100.00;101591.31;6270871;28;20179;-73
2022/10/29 13:27:34;;;;;;;8.63;3.13;;;;;;;19.85;100.00;101601.97;6270262;28;20045;-73
2022/10/29 13:30:37;;;;;;;4.75;2.03;;;;;;;19.73;100.00;101598.47;6268234;28;20092;-74
2022/10/29 13:33:51;;;;;;;5.70;2.80;;;;;;;19.64;100.00;101601.84;6270327;28;20049;-73
2022/10/29 13:37:14;;;;;;;7.85;2.55;;;;;;;19.60;100.00;101598.56;6267144;28;20060;-73
2022/10/29 13:40:41;;;;;;;4.50;2.20;;;;;;;19.51;100.00;101592.09;6267541;28;20045;-73
2022/10/29 13:43:53;;;;;;;7.20;2.50;;;;;;;19.46;100.00;101596.09;6268801;28;20049;-74
2022/10/29 13:46:59;;;;;;;5.35;2.65;;;;;;;19.38;100.00;101599.34;6267697;28;20048;-73
2022/10/29 13:50:01;;;;;;;5.20;2.70;;;;;;;19.44;100.00;101598.03;6269754;28;20059;-73
2022/10/29 13:53:07;;;;;;;6.95;2.55;;;;;;;19.43;100.00;101599.00;6269660;28;20052;-73
2022/10/29 13:56:11;;;;;;;5.05;2.55;;;;;;;19.43;100.00;101607.00;6269569;28;20072;-73
2022/10/29 13:59:22;;;;;;;11.07;4.38;;;;;;;19.39;100.00;101609.03;6267344;28;20080;-73
2022/10/29 14:02:30;;;;;;;9.98;3.88;;;;;;;19.34;100.00;101597.03;6269474;28;20052;-73
2022/10/29 14:05:38;;;;;;;6.40;2.92;;;;;;;19.27;100.00;101594.84;6266791;28;20095;-73
2022/10/29 14:08:46;;;;;;;9.10;2.80;;;;;;;19.20;100.00;101590.94;6267744;28;20052;-73